createdAt,value
2022-11-04T00:04:56.434Z,11.05
2022-11-04T00:10:17.074Z,10.55
2022-11-04T00:15:56.369Z,8.82
2022-11-04T00:21:35.623Z,10.18
2022-11-04T00:27:15.756Z,9.53
2022-11-04T00:32:55.437Z,9.73
2022-11-04T00:38:17.203Z,10.70
2022-11-04T00:43:37.811Z,10.93
2022-11-04T00:48:59.112Z,10.48
2022-11-04T00:54:19.931Z,10.00
2022-11-04T00:59:40.915Z,10.70
2022-11-04T01:05:02.003Z,10.90
2022-11-04T01:10:22.977Z,11.60
2022-11-04T01:15:43.574Z,10.65
2022-11-04T01:21:06.543Z,9.60
2022-11-04T01:26:28.917Z,11.90
2022-11-04T01:31:49.532Z,9.73
2022-11-04T01:37:10.401Z,11.55
2022-11-04T01:42:31.049Z,10.52
2022-11-04T01:48:00.688Z,9.77
2022-11-04T01:53:27.740Z,11.43
2022-11-04T01:58:52.729Z,9.63
2022-11-04T02:04:26.059Z,10.13
2022-11-04T02:09:47.189Z,8.85
2022-11-04T02:15:08.185Z,10.43
2022-11-04T02:20:33.942Z,11.00
2022-11-04T02:26:20.891Z,11.93
2022-11-04T02:31:54.034Z,9.98
2022-11-04T02:37:18.520Z,11.38
2022-11-04T02:43:02.511Z,10.52
2022-11-04T02:48:37.901Z,9.77
2022-11-04T02:54:03.470Z,11.35
2022-11-04T02:59:55.299Z,10.98
2022-11-04T03:05:20.390Z,11.65
2022-11-04T03:10:45.037Z,10.70
2022-11-04T03:16:11.615Z,10.35
2022-11-04T03:21:37.059Z,8.60
2022-11-04T03:27:12.626Z,8.90
2022-11-04T03:32:44.619Z,8.50
2022-11-04T03:38:05.753Z,8.25
2022-11-04T03:43:29.027Z,8.55
2022-11-04T03:48:53.127Z,11.27
2022-11-04T03:54:15.856Z,10.45
2022-11-04T04:00:07.151Z,9.95
2022-11-04T04:05:46.458Z,10.52
2022-11-04T04:11:23.656Z,10.68
2022-11-04T04:16:47.622Z,10.15
2022-11-04T04:22:14.578Z,10.73
2022-11-04T04:27:36.348Z,8.73
2022-11-04T04:33:03.387Z,9.82
2022-11-04T04:38:45.688Z,10.10
2022-11-04T04:44:34.353Z,9.50
2022-11-04T04:49:57.933Z,10.77
2022-11-04T04:55:19.528Z,9.85
2022-11-04T05:00:40.322Z,10.07
2022-11-04T05:06:01.069Z,10.43
2022-11-04T05:11:26.205Z,9.80
2022-11-04T05:16:48.150Z,10.60
2022-11-04T05:22:08.956Z,11.40
2022-11-04T05:27:29.631Z,9.65
2022-11-04T05:32:50.474Z,10.85
2022-11-04T05:38:11.210Z,10.25
2022-11-04T05:43:32.695Z,9.45
2022-11-04T05:48:54.096Z,10.25
2022-11-04T05:54:14.777Z,10.32
2022-11-04T05:59:35.401Z,11.00
2022-11-04T06:04:56.210Z,8.90
2022-11-04T06:10:16.983Z,10.82
2022-11-04T06:15:38.040Z,10.68
2022-11-04T06:21:09.533Z,10.98
2022-11-04T06:26:31.409Z,9.98
2022-11-04T06:31:51.998Z,11.20
2022-11-04T06:37:12.797Z,11.05
2022-11-04T06:42:33.370Z,9.95
2022-11-04T06:47:54.186Z,10.63
2022-11-04T06:53:14.912Z,9.10
2022-11-04T06:58:35.775Z,9.85
2022-11-04T07:03:58.687Z,10.20
2022-11-04T07:09:19.611Z,10.95
2022-11-04T07:14:40.836Z,10.88
2022-11-04T07:20:01.798Z,8.43
2022-11-04T07:25:23.394Z,9.10
2022-11-04T07:30:44.008Z,8.60
2022-11-04T07:36:06.436Z,8.85
2022-11-04T07:41:27.296Z,8.77
2022-11-04T07:46:48.005Z,9.45
2022-11-04T07:52:08.755Z,9.18
2022-11-04T07:57:29.591Z,9.65
2022-11-04T08:02:50.703Z,8.43
2022-11-04T08:08:11.522Z,5.18
2022-11-04T08:13:35.041Z,8.30
2022-11-04T08:19:01.667Z,7.88
2022-11-04T08:24:22.735Z,7.95
2022-11-04T08:29:43.646Z,7.43
2022-11-04T08:35:04.648Z,8.23
2022-11-04T08:40:25.862Z,7.88
2022-11-04T08:45:46.846Z,9.02
2022-11-04T08:51:13.117Z,8.15
2022-11-04T08:56:39.077Z,8.10
2022-11-04T09:02:00.170Z,7.85
2022-11-04T09:07:21.332Z,7.43
2022-11-04T09:12:43.038Z,8.20
2022-11-04T09:18:04.164Z,6.35
2022-11-04T09:23:25.116Z,7.80
2022-11-04T09:28:46.036Z,7.55
2022-11-04T09:34:06.774Z,6.00
2022-11-04T09:39:27.627Z,6.88
2022-11-04T09:45:20.079Z,7.07
2022-11-04T09:50:49.341Z,6.20
2022-11-04T09:56:26.944Z,5.80
2022-11-04T10:02:03.017Z,4.78
2022-11-04T10:07:49.088Z,5.72
2022-11-04T10:13:19.223Z,5.28
2022-11-04T10:24:16.300Z,5.70
2022-11-04T10:29:43.098Z,4.10
2022-11-04T10:35:13.059Z,4.25
2022-11-04T10:46:07.369Z,5.47
2022-11-04T10:51:28.036Z,4.85
2022-11-04T10:56:56.800Z,4.13
2022-11-04T11:02:18.100Z,3.47
2022-11-04T11:07:39.242Z,5.07
2022-11-04T11:13:08.326Z,4.78
2022-11-04T11:18:29.634Z,3.70
2022-11-04T11:23:54.619Z,4.75
2022-11-04T11:29:29.480Z,4.82
2022-11-04T11:34:50.317Z,3.78
2022-11-04T11:40:28.298Z,3.90
2022-11-04T11:45:50.813Z,3.25
2022-11-04T11:51:26.257Z,4.75
2022-11-04T11:57:15.895Z,5.20
2022-11-04T12:02:50.627Z,3.75
2022-11-04T12:14:24.985Z,5.88
2022-11-04T12:20:20.112Z,3.70
2022-11-04T12:26:13.774Z,5.57
2022-11-04T12:31:51.248Z,5.88
2022-11-04T12:37:33.318Z,5.07
2022-11-04T12:43:12.335Z,4.43
2022-11-04T12:48:39.246Z,3.95
2022-11-04T12:54:19.072Z,4.10
2022-11-04T13:00:03.301Z,3.90
2022-11-04T13:05:58.468Z,2.28
2022-11-04T13:11:36.178Z,3.75
2022-11-04T13:17:01.111Z,3.45
2022-11-04T13:22:34.002Z,4.05
2022-11-04T13:27:54.995Z,3.47
2022-11-04T13:33:58.418Z,3.20
2022-11-04T13:39:29.544Z,2.72
2022-11-04T13:44:54.269Z,2.58
2022-11-04T13:50:37.433Z,2.20
2022-11-04T13:56:09.473Z,2.60
2022-11-04T14:01:39.141Z,2.58
2022-11-04T14:07:04.433Z,2.47
2022-11-04T14:12:30.901Z,2.88
2022-11-04T14:17:52.038Z,2.33
2022-11-04T14:23:24.514Z,2.10
2022-11-04T14:28:48.205Z,1.70
2022-11-04T14:34:26.059Z,2.25
2022-11-04T14:39:58.257Z,1.85
2022-11-04T14:45:25.656Z,2.35
2022-11-04T14:50:51.125Z,2.53
2022-11-04T14:56:24.385Z,1.98
2022-11-04T15:01:45.948Z,2.17
2022-11-04T15:07:29.238Z,1.77
2022-11-04T15:12:53.653Z,1.70
2022-11-04T15:18:21.798Z,1.92
2022-11-04T15:23:55.931Z,1.67
2022-11-04T15:29:18.659Z,1.85
2022-11-04T15:34:39.735Z,3.00
2022-11-04T15:40:00.833Z,1.83
2022-11-04T15:45:34.825Z,2.88
2022-11-04T15:51:17.198Z,2.22
2022-11-04T15:56:50.055Z,3.08
2022-11-04T16:02:49.242Z,2.50
2022-11-04T16:08:29.138Z,2.20
2022-11-04T16:13:50.003Z,2.20
2022-11-04T16:19:23.130Z,2.30
2022-11-04T16:24:48.924Z,2.75
2022-11-04T16:30:17.570Z,2.15
2022-11-04T16:35:42.818Z,2.42
2022-11-04T16:41:03.811Z,2.22
2022-11-04T16:46:24.834Z,2.40
2022-11-04T16:51:49.706Z,2.15
2022-11-04T16:57:13.287Z,2.47
2022-11-04T17:02:37.908Z,2.20
2022-11-04T17:08:04.504Z,2.13
2022-11-04T17:13:26.069Z,1.50
2022-11-04T17:18:46.943Z,1.63
2022-11-04T17:24:07.652Z,1.65
2022-11-04T17:29:29.977Z,1.25
2022-11-04T17:34:53.201Z,1.52
2022-11-04T17:40:18.454Z,1.20
2022-11-04T17:45:41.390Z,0.70
2022-11-04T17:51:07.693Z,1.13
2022-11-04T17:56:28.607Z,0.90
2022-11-04T18:01:49.796Z,1.20
2022-11-04T18:07:10.657Z,1.33
2022-11-04T18:12:37.233Z,1.10
2022-11-04T18:17:58.117Z,1.30
2022-11-04T18:23:18.761Z,0.90
2022-11-04T18:28:40.280Z,0.70
2022-11-04T18:34:04.516Z,0.65
2022-11-04T18:39:25.597Z,1.13
2022-11-04T18:44:46.533Z,0.82
2022-11-04T18:50:07.572Z,0.80
2022-11-04T18:55:32.946Z,2.28
2022-11-04T19:00:54.137Z,1.48
2022-11-04T19:06:17.814Z,1.50
2022-11-04T19:11:40.089Z,1.52
2022-11-04T19:17:00.821Z,2.00
2022-11-04T19:22:21.508Z,1.85
2022-11-04T19:27:42.408Z,1.80
2022-11-04T19:33:03.020Z,1.90
2022-11-04T19:38:24.528Z,2.05
2022-11-04T19:43:45.536Z,1.70
2022-11-04T19:49:07.749Z,2.00
2022-11-04T19:54:29.439Z,1.48
2022-11-04T19:59:51.117Z,1.90
2022-11-04T20:05:12.136Z,2.08
2022-11-04T20:10:36.107Z,1.77
2022-11-04T20:15:57.371Z,1.60
2022-11-04T20:21:20.338Z,1.65
2022-11-04T20:26:46.727Z,2.00
2022-11-04T20:32:07.617Z,1.90
2022-11-04T20:37:28.406Z,1.38
2022-11-04T20:42:49.073Z,1.55
2022-11-04T20:48:10.081Z,1.75
2022-11-04T20:53:31.352Z,1.30
2022-11-04T20:58:57.718Z,1.80
2022-11-04T21:04:21.466Z,1.30
2022-11-04T21:09:42.180Z,1.75
2022-11-04T21:15:03.172Z,1.40
2022-11-04T21:20:24.176Z,1.45
2022-11-04T21:25:54.202Z,1.55
2022-11-04T21:31:15.030Z,1.70
2022-11-04T21:36:36.264Z,1.75
2022-11-04T21:41:57.141Z,1.42
2022-11-04T21:47:17.797Z,1.80
2022-11-04T21:52:38.532Z,1.10
2022-11-04T21:57:59.216Z,1.40
2022-11-04T22:03:19.920Z,1.23
2022-11-04T22:08:46.711Z,1.00
2022-11-04T22:14:11.523Z,1.20
2022-11-04T22:19:32.228Z,1.42
2022-11-04T22:25:06.183Z,1.17
2022-11-04T22:30:27.313Z,1.25
2022-11-04T22:35:48.113Z,1.55
2022-11-04T22:41:15.056Z,1.00
2022-11-04T22:46:36.079Z,1.35
2022-11-04T22:51:56.887Z,1.30
2022-11-04T22:57:17.776Z,1.30
2022-11-04T23:02:38.790Z,1.13
2022-11-04T23:08:00.669Z,1.80
2022-11-04T23:13:40.066Z,1.90
2022-11-04T23:19:00.860Z,1.70
2022-11-04T23:24:40.132Z,1.90
2022-11-04T23:30:20.861Z,2.20
2022-11-04T23:36:05.320Z,2.20
2022-11-04T23:41:44.587Z,2.53
2022-11-04T23:47:23.720Z,2.63
2022-11-04T23:53:10.851Z,2.67
2022-11-04T23:58:50.605Z,2.50
